sensor_id;sensor_type;location;lat;lon;timestamp;P1;durP1;ratioP1;P2;durP2;ratioP2
5225;SDS011;2632;51.666;7.146;2023-07-09T00:00:47;15.60;;;8.53;;
5225;SDS011;2632;51.666;7.146;2023-07-09T00:03:15;11.83;;;7.87;;
5225;SDS011;2632;51.666;7.146;2023-07-09T00:05:42;13.10;;;8.70;;
5225;SDS011;2632;51.666;7.146;2023-07-09T00:08:15;16.60;;;8.53;;
5225;SDS011;2632;51.666;7.146;2023-07-09T00:10:55;13.17;;;8.50;;
5225;SDS011;2632;51.666;7.146;2023-07-09T00:13:23;12.73;;;8.50;;
5225;SDS011;2632;51.666;7.146;2023-07-09T00:15:51;13.10;;;8.00;;
5225;SDS011;2632;51.666;7.146;2023-07-09T00:18:27;16.33;;;7.77;;
5225;SDS011;2632;51.666;7.146;2023-07-09T00:20:54;9.40;;;7.77;;
5225;SDS011;2632;51.666;7.146;2023-07-09T00:23:21;11.20;;;7.33;;
5225;SDS011;2632;51.666;7.146;2023-07-09T00:25:47;12.70;;;7.50;;
5225;SDS011;2632;51.666;7.146;2023-07-09T00:28:15;10.90;;;7.60;;
5225;SDS011;2632;51.666;7.146;2023-07-09T00:30:46;10.33;;;7.63;;
5225;SDS011;2632;51.666;7.146;2023-07-09T00:33:15;11.17;;;8.17;;
5225;SDS011;2632;51.666;7.146;2023-07-09T00:35:45;12.60;;;7.13;;
5225;SDS011;2632;51.666;7.146;2023-07-09T00:38:15;10.77;;;7.43;;
5225;SDS011;2632;51.666;7.146;2023-07-09T00:41:03;9.73;;;7.70;;
5225;SDS011;2632;51.666;7.146;2023-07-09T00:43:35;10.40;;;8.37;;
5225;SDS011;2632;51.666;7.146;2023-07-09T00:48:53;10.47;;;8.40;;
5225;SDS011;2632;51.666;7.146;2023-07-09T00:51:25;11.27;;;7.80;;
5225;SDS011;2632;51.666;7.146;2023-07-09T00:53:54;9.37;;;7.53;;
5225;SDS011;2632;51.666;7.146;2023-07-09T00:56:29;11.57;;;8.20;;
5225;SDS011;2632;51.666;7.146;2023-07-09T00:59:04;8.40;;;6.70;;
5225;SDS011;2632;51.666;7.146;2023-07-09T01:01:37;12.83;;;8.00;;
5225;SDS011;2632;51.666;7.146;2023-07-09T01:04:07;14.90;;;8.30;;
5225;SDS011;2632;51.666;7.146;2023-07-09T01:06:39;9.57;;;7.57;;
5225;SDS011;2632;51.666;7.146;2023-07-09T01:09:10;12.33;;;7.67;;
5225;SDS011;2632;51.666;7.146;2023-07-09T01:11:37;10.80;;;7.33;;
5225;SDS011;2632;51.666;7.146;2023-07-09T01:14:05;12.40;;;8.27;;
5225;SDS011;2632;51.666;7.146;2023-07-09T01:16:38;13.07;;;7.53;;
5225;SDS011;2632;51.666;7.146;2023-07-09T01:19:27;10.57;;;7.23;;
5225;SDS011;2632;51.666;7.146;2023-07-09T01:21:55;10.70;;;8.10;;
5225;SDS011;2632;51.666;7.146;2023-07-09T01:27:13;10.57;;;7.43;;
5225;SDS011;2632;51.666;7.146;2023-07-09T01:29:41;10.83;;;7.50;;
5225;SDS011;2632;51.666;7.146;2023-07-09T01:32:13;10.43;;;7.80;;
5225;SDS011;2632;51.666;7.146;2023-07-09T01:34:40;11.70;;;7.90;;
5225;SDS011;2632;51.666;7.146;2023-07-09T01:37:07;10.20;;;7.30;;
5225;SDS011;2632;51.666;7.146;2023-07-09T01:39:33;10.40;;;7.43;;
5225;SDS011;2632;51.666;7.146;2023-07-09T01:42:02;11.40;;;8.03;;
5225;SDS011;2632;51.666;7.146;2023-07-09T01:44:29;11.30;;;7.80;;
5225;SDS011;2632;51.666;7.146;2023-07-09T01:46:55;15.60;;;8.17;;
5225;SDS011;2632;51.666;7.146;2023-07-09T01:49:22;11.47;;;8.33;;
5225;SDS011;2632;51.666;7.146;2023-07-09T01:51:49;14.20;;;8.13;;
5225;SDS011;2632;51.666;7.146;2023-07-09T01:54:16;11.10;;;7.60;;
5225;SDS011;2632;51.666;7.146;2023-07-09T01:56:43;12.27;;;7.90;;
5225;SDS011;2632;51.666;7.146;2023-07-09T01:59:10;11.10;;;7.00;;
5225;SDS011;2632;51.666;7.146;2023-07-09T02:01:37;13.73;;;7.40;;
5225;SDS011;2632;51.666;7.146;2023-07-09T02:04:04;11.80;;;7.83;;
5225;SDS011;2632;51.666;7.146;2023-07-09T02:06:31;11.20;;;8.10;;
5225;SDS011;2632;51.666;7.146;2023-07-09T02:08:58;9.40;;;7.17;;
5225;SDS011;2632;51.666;7.146;2023-07-09T02:11:25;11.40;;;7.87;;
5225;SDS011;2632;51.666;7.146;2023-07-09T02:13:51;11.00;;;7.47;;
5225;SDS011;2632;51.666;7.146;2023-07-09T02:16:18;12.23;;;7.67;;
5225;SDS011;2632;51.666;7.146;2023-07-09T02:18:45;12.03;;;8.00;;
5225;SDS011;2632;51.666;7.146;2023-07-09T02:21:12;11.93;;;7.60;;
5225;SDS011;2632;51.666;7.146;2023-07-09T02:23:38;10.80;;;7.87;;
5225;SDS011;2632;51.666;7.146;2023-07-09T02:26:05;11.83;;;7.73;;
5225;SDS011;2632;51.666;7.146;2023-07-09T02:28:32;10.30;;;7.80;;
5225;SDS011;2632;51.666;7.146;2023-07-09T02:30:59;11.60;;;7.93;;
5225;SDS011;2632;51.666;7.146;2023-07-09T02:33:27;9.40;;;7.53;;
5225;SDS011;2632;51.666;7.146;2023-07-09T02:35:54;18.60;;;8.40;;
5225;SDS011;2632;51.666;7.146;2023-07-09T02:38:20;11.43;;;7.67;;
5225;SDS011;2632;51.666;7.146;2023-07-09T02:40:47;15.47;;;7.07;;
5225;SDS011;2632;51.666;7.146;2023-07-09T02:43:14;10.53;;;7.67;;
5225;SDS011;2632;51.666;7.146;2023-07-09T02:45:40;9.30;;;7.73;;
5225;SDS011;2632;51.666;7.146;2023-07-09T02:48:07;10.17;;;7.50;;
5225;SDS011;2632;51.666;7.146;2023-07-09T02:50:34;11.30;;;7.50;;
5225;SDS011;2632;51.666;7.146;2023-07-09T02:53:01;14.53;;;7.70;;
5225;SDS011;2632;51.666;7.146;2023-07-09T02:55:28;11.83;;;7.23;;
5225;SDS011;2632;51.666;7.146;2023-07-09T02:57:55;10.03;;;7.60;;
5225;SDS011;2632;51.666;7.146;2023-07-09T03:00:22;11.77;;;7.30;;
5225;SDS011;2632;51.666;7.146;2023-07-09T03:02:49;11.60;;;8.03;;
5225;SDS011;2632;51.666;7.146;2023-07-09T03:05:16;11.60;;;7.70;;
5225;SDS011;2632;51.666;7.146;2023-07-09T03:07:42;10.63;;;7.50;;
5225;SDS011;2632;51.666;7.146;2023-07-09T03:10:09;11.27;;;7.60;;
5225;SDS011;2632;51.666;7.146;2023-07-09T03:12:36;10.60;;;8.20;;
5225;SDS011;2632;51.666;7.146;2023-07-09T03:15:03;10.63;;;7.90;;
5225;SDS011;2632;51.666;7.146;2023-07-09T03:17:29;10.87;;;7.43;;
5225;SDS011;2632;51.666;7.146;2023-07-09T03:19:56;10.50;;;7.87;;
5225;SDS011;2632;51.666;7.146;2023-07-09T03:22:23;11.20;;;8.00;;
5225;SDS011;2632;51.666;7.146;2023-07-09T03:24:52;10.53;;;7.20;;
5225;SDS011;2632;51.666;7.146;2023-07-09T03:27:19;11.30;;;8.00;;
5225;SDS011;2632;51.666;7.146;2023-07-09T03:29:46;12.00;;;8.60;;
5225;SDS011;2632;51.666;7.146;2023-07-09T03:32:12;12.47;;;8.33;;
5225;SDS011;2632;51.666;7.146;2023-07-09T03:34:39;11.77;;;8.57;;
5225;SDS011;2632;51.666;7.146;2023-07-09T03:37:06;8.97;;;7.83;;
5225;SDS011;2632;51.666;7.146;2023-07-09T03:39:35;10.63;;;7.70;;
5225;SDS011;2632;51.666;7.146;2023-07-09T03:42:02;13.40;;;8.60;;
5225;SDS011;2632;51.666;7.146;2023-07-09T03:44:29;16.63;;;8.30;;
5225;SDS011;2632;51.666;7.146;2023-07-09T03:46:56;10.53;;;8.30;;
5225;SDS011;2632;51.666;7.146;2023-07-09T03:49:22;9.10;;;7.37;;
5225;SDS011;2632;51.666;7.146;2023-07-09T03:51:49;12.50;;;7.50;;
5225;SDS011;2632;51.666;7.146;2023-07-09T03:54:16;10.20;;;7.90;;
5225;SDS011;2632;51.666;7.146;2023-07-09T03:56:42;12.43;;;8.63;;
5225;SDS011;2632;51.666;7.146;2023-07-09T03:59:10;12.43;;;7.90;;
5225;SDS011;2632;51.666;7.146;2023-07-09T04:01:37;13.13;;;9.23;;
5225;SDS011;2632;51.666;7.146;2023-07-09T04:04:03;9.67;;;7.97;;
5225;SDS011;2632;51.666;7.146;2023-07-09T04:06:30;12.63;;;7.90;;
5225;SDS011;2632;51.666;7.146;2023-07-09T04:08:57;16.47;;;8.90;;
5225;SDS011;2632;51.666;7.146;2023-07-09T04:11:23;12.87;;;8.63;;
5225;SDS011;2632;51.666;7.146;2023-07-09T04:13:50;11.43;;;8.00;;
5225;SDS011;2632;51.666;7.146;2023-07-09T04:16:17;12.90;;;8.57;;
5225;SDS011;2632;51.666;7.146;2023-07-09T04:18:44;9.07;;;7.20;;
5225;SDS011;2632;51.666;7.146;2023-07-09T04:21:10;10.93;;;8.23;;
5225;SDS011;2632;51.666;7.146;2023-07-09T04:23:37;13.70;;;8.40;;
5225;SDS011;2632;51.666;7.146;2023-07-09T04:26:03;9.87;;;7.53;;
5225;SDS011;2632;51.666;7.146;2023-07-09T04:28:31;12.63;;;7.50;;
5225;SDS011;2632;51.666;7.146;2023-07-09T04:30:58;12.20;;;8.30;;
5225;SDS011;2632;51.666;7.146;2023-07-09T04:33:24;12.07;;;8.40;;
5225;SDS011;2632;51.666;7.146;2023-07-09T04:35:51;10.73;;;8.00;;
5225;SDS011;2632;51.666;7.146;2023-07-09T04:38:17;11.03;;;8.30;;
5225;SDS011;2632;51.666;7.146;2023-07-09T04:40:44;10.50;;;7.83;;
5225;SDS011;2632;51.666;7.146;2023-07-09T04:43:12;11.93;;;9.00;;
5225;SDS011;2632;51.666;7.146;2023-07-09T04:45:39;11.63;;;7.90;;
5225;SDS011;2632;51.666;7.146;2023-07-09T04:48:06;11.20;;;8.20;;
5225;SDS011;2632;51.666;7.146;2023-07-09T04:50:33;12.27;;;8.53;;
5225;SDS011;2632;51.666;7.146;2023-07-09T04:53:00;11.73;;;8.07;;
5225;SDS011;2632;51.666;7.146;2023-07-09T04:55:27;13.10;;;9.07;;
5225;SDS011;2632;51.666;7.146;2023-07-09T04:57:54;10.97;;;8.23;;
5225;SDS011;2632;51.666;7.146;2023-07-09T05:00:21;12.60;;;9.13;;
5225;SDS011;2632;51.666;7.146;2023-07-09T05:02:48;13.17;;;8.47;;
5225;SDS011;2632;51.666;7.146;2023-07-09T05:05:15;11.43;;;8.00;;
5225;SDS011;2632;51.666;7.146;2023-07-09T05:07:42;11.60;;;8.10;;
5225;SDS011;2632;51.666;7.146;2023-07-09T05:10:08;13.50;;;8.70;;
5225;SDS011;2632;51.666;7.146;2023-07-09T05:12:35;11.90;;;7.83;;
5225;SDS011;2632;51.666;7.146;2023-07-09T05:15:12;14.20;;;8.27;;
5225;SDS011;2632;51.666;7.146;2023-07-09T05:17:39;11.93;;;8.10;;
5225;SDS011;2632;51.666;7.146;2023-07-09T05:20:06;14.37;;;8.00;;
5225;SDS011;2632;51.666;7.146;2023-07-09T05:22:33;17.10;;;8.70;;
5225;SDS011;2632;51.666;7.146;2023-07-09T05:24:59;11.50;;;8.37;;
5225;SDS011;2632;51.666;7.146;2023-07-09T05:27:26;11.13;;;8.30;;
5225;SDS011;2632;51.666;7.146;2023-07-09T05:29:53;11.47;;;9.20;;
5225;SDS011;2632;51.666;7.146;2023-07-09T05:32:19;13.57;;;8.70;;
5225;SDS011;2632;51.666;7.146;2023-07-09T05:34:46;15.20;;;8.90;;
5225;SDS011;2632;51.666;7.146;2023-07-09T05:37:13;12.57;;;9.00;;
5225;SDS011;2632;51.666;7.146;2023-07-09T05:39:39;14.00;;;8.67;;
5225;SDS011;2632;51.666;7.146;2023-07-09T05:42:06;18.00;;;7.77;;
5225;SDS011;2632;51.666;7.146;2023-07-09T05:44:34;15.50;;;8.60;;
5225;SDS011;2632;51.666;7.146;2023-07-09T05:47:00;12.40;;;7.50;;
5225;SDS011;2632;51.666;7.146;2023-07-09T05:49:27;12.10;;;7.90;;
5225;SDS011;2632;51.666;7.146;2023-07-09T05:51:54;13.83;;;7.63;;
5225;SDS011;2632;51.666;7.146;2023-07-09T05:54:20;9.73;;;7.40;;
5225;SDS011;2632;51.666;7.146;2023-07-09T05:56:47;11.80;;;7.87;;
5225;SDS011;2632;51.666;7.146;2023-07-09T05:59:14;12.60;;;8.63;;
5225;SDS011;2632;51.666;7.146;2023-07-09T06:01:40;12.63;;;8.63;;
5225;SDS011;2632;51.666;7.146;2023-07-09T06:04:07;13.13;;;8.40;;
5225;SDS011;2632;51.666;7.146;2023-07-09T06:06:34;15.60;;;8.60;;
5225;SDS011;2632;51.666;7.146;2023-07-09T06:09:00;11.83;;;7.43;;
5225;SDS011;2632;51.666;7.146;2023-07-09T06:11:27;14.67;;;7.63;;
5225;SDS011;2632;51.666;7.146;2023-07-09T06:13:54;10.90;;;7.20;;
5225;SDS011;2632;51.666;7.146;2023-07-09T06:16:22;14.10;;;7.60;;
5225;SDS011;2632;51.666;7.146;2023-07-09T06:18:48;11.20;;;7.23;;
5225;SDS011;2632;51.666;7.146;2023-07-09T06:21:15;9.73;;;6.90;;
5225;SDS011;2632;51.666;7.146;2023-07-09T06:23:42;15.67;;;7.90;;
5225;SDS011;2632;51.666;7.146;2023-07-09T06:26:08;9.83;;;6.83;;
5225;SDS011;2632;51.666;7.146;2023-07-09T06:28:35;9.37;;;6.90;;
5225;SDS011;2632;51.666;7.146;2023-07-09T06:31:02;12.10;;;7.57;;
5225;SDS011;2632;51.666;7.146;2023-07-09T06:33:29;12.03;;;8.10;;
5225;SDS011;2632;51.666;7.146;2023-07-09T06:35:57;9.90;;;6.80;;
5225;SDS011;2632;51.666;7.146;2023-07-09T06:38:25;13.00;;;7.50;;
5225;SDS011;2632;51.666;7.146;2023-07-09T06:40:53;13.37;;;8.13;;
5225;SDS011;2632;51.666;7.146;2023-07-09T06:43:20;9.80;;;7.13;;
5225;SDS011;2632;51.666;7.146;2023-07-09T06:45:51;13.60;;;7.30;;
5225;SDS011;2632;51.666;7.146;2023-07-09T06:48:20;12.80;;;6.83;;
5225;SDS011;2632;51.666;7.146;2023-07-09T06:50:48;11.00;;;6.40;;
5225;SDS011;2632;51.666;7.146;2023-07-09T06:53:15;9.50;;;6.80;;
5225;SDS011;2632;51.666;7.146;2023-07-09T06:55:42;14.23;;;7.07;;
5225;SDS011;2632;51.666;7.146;2023-07-09T06:58:09;10.17;;;6.73;;
5225;SDS011;2632;51.666;7.146;2023-07-09T07:00:35;12.53;;;6.90;;
5225;SDS011;2632;51.666;7.146;2023-07-09T07:03:03;11.30;;;6.83;;
5225;SDS011;2632;51.666;7.146;2023-07-09T07:05:31;10.87;;;6.90;;
5225;SDS011;2632;51.666;7.146;2023-07-09T07:07:59;10.20;;;6.50;;
5225;SDS011;2632;51.666;7.146;2023-07-09T07:10:26;13.50;;;6.70;;
5225;SDS011;2632;51.666;7.146;2023-07-09T07:12:53;12.23;;;6.60;;
5225;SDS011;2632;51.666;7.146;2023-07-09T07:15:20;9.43;;;5.83;;
5225;SDS011;2632;51.666;7.146;2023-07-09T07:17:47;9.90;;;6.30;;
5225;SDS011;2632;51.666;7.146;2023-07-09T07:20:14;9.53;;;6.43;;
5225;SDS011;2632;51.666;7.146;2023-07-09T07:22:42;11.20;;;6.17;;
5225;SDS011;2632;51.666;7.146;2023-07-09T07:25:08;10.33;;;6.40;;
5225;SDS011;2632;51.666;7.146;2023-07-09T07:27:35;9.47;;;6.07;;
5225;SDS011;2632;51.666;7.146;2023-07-09T07:30:03;15.30;;;6.50;;
5225;SDS011;2632;51.666;7.146;2023-07-09T07:32:30;13.87;;;7.30;;
5225;SDS011;2632;51.666;7.146;2023-07-09T07:34:57;10.43;;;6.03;;
5225;SDS011;2632;51.666;7.146;2023-07-09T07:37:24;9.50;;;6.00;;
5225;SDS011;2632;51.666;7.146;2023-07-09T07:39:50;9.90;;;6.40;;
5225;SDS011;2632;51.666;7.146;2023-07-09T07:42:17;11.73;;;6.60;;
5225;SDS011;2632;51.666;7.146;2023-07-09T07:44:44;9.20;;;5.63;;
5225;SDS011;2632;51.666;7.146;2023-07-09T07:47:11;11.90;;;7.13;;
5225;SDS011;2632;51.666;7.146;2023-07-09T07:49:40;10.40;;;6.17;;
5225;SDS011;2632;51.666;7.146;2023-07-09T07:52:07;10.63;;;7.17;;
5225;SDS011;2632;51.666;7.146;2023-07-09T07:54:34;15.10;;;6.73;;
5225;SDS011;2632;51.666;7.146;2023-07-09T07:57:00;10.90;;;6.17;;
5225;SDS011;2632;51.666;7.146;2023-07-09T07:59:27;9.73;;;6.50;;
5225;SDS011;2632;51.666;7.146;2023-07-09T08:01:54;10.70;;;6.30;;
5225;SDS011;2632;51.666;7.146;2023-07-09T08:04:21;10.13;;;6.27;;
5225;SDS011;2632;51.666;7.146;2023-07-09T08:06:48;12.60;;;7.43;;
5225;SDS011;2632;51.666;7.146;2023-07-09T08:09:15;9.97;;;6.23;;
5225;SDS011;2632;51.666;7.146;2023-07-09T08:11:42;10.30;;;6.83;;
5225;SDS011;2632;51.666;7.146;2023-07-09T08:14:09;9.67;;;6.27;;
5225;SDS011;2632;51.666;7.146;2023-07-09T08:16:36;11.70;;;6.20;;
5225;SDS011;2632;51.666;7.146;2023-07-09T08:19:03;8.03;;;6.03;;
5225;SDS011;2632;51.666;7.146;2023-07-09T08:21:30;10.80;;;7.10;;
5225;SDS011;2632;51.666;7.146;2023-07-09T08:23:57;9.33;;;6.23;;
5225;SDS011;2632;51.666;7.146;2023-07-09T08:26:24;9.50;;;6.30;;
5225;SDS011;2632;51.666;7.146;2023-07-09T08:28:51;12.07;;;6.47;;
5225;SDS011;2632;51.666;7.146;2023-07-09T08:31:18;10.03;;;6.50;;
5225;SDS011;2632;51.666;7.146;2023-07-09T08:33:45;12.48;;;6.88;;
5225;SDS011;2632;51.666;7.146;2023-07-09T08:36:12;8.20;;;6.30;;
5225;SDS011;2632;51.666;7.146;2023-07-09T08:38:38;10.35;;;6.53;;
5225;SDS011;2632;51.666;7.146;2023-07-09T08:52:11;7.90;;;5.85;;
5225;SDS011;2632;51.666;7.146;2023-07-09T08:54:47;12.15;;;6.85;;
5225;SDS011;2632;51.666;7.146;2023-07-09T08:59:53;13.02;;;6.90;;
5225;SDS011;2632;51.666;7.146;2023-07-09T09:02:35;9.55;;;7.05;;
5225;SDS011;2632;51.666;7.146;2023-07-09T09:05:05;9.65;;;6.75;;
5225;SDS011;2632;51.666;7.146;2023-07-09T09:07:42;8.93;;;6.50;;
5225;SDS011;2632;51.666;7.146;2023-07-09T09:10:11;9.77;;;6.47;;
5225;SDS011;2632;51.666;7.146;2023-07-09T09:12:51;10.85;;;6.90;;
5225;SDS011;2632;51.666;7.146;2023-07-09T09:15:19;9.60;;;7.03;;
5225;SDS011;2632;51.666;7.146;2023-07-09T09:17:48;11.75;;;6.60;;
5225;SDS011;2632;51.666;7.146;2023-07-09T09:20:20;10.80;;;6.90;;
5225;SDS011;2632;51.666;7.146;2023-07-09T09:22:57;13.23;;;6.78;;
5225;SDS011;2632;51.666;7.146;2023-07-09T09:25:37;11.10;;;6.97;;
5225;SDS011;2632;51.666;7.146;2023-07-09T09:28:08;10.40;;;7.57;;
5225;SDS011;2632;51.666;7.146;2023-07-09T09:30:34;7.97;;;6.43;;
5225;SDS011;2632;51.666;7.146;2023-07-09T09:33:06;12.15;;;6.43;;
5225;SDS011;2632;51.666;7.146;2023-07-09T09:35:42;9.05;;;6.65;;
5225;SDS011;2632;51.666;7.146;2023-07-09T09:38:16;12.80;;;7.15;;
5225;SDS011;2632;51.666;7.146;2023-07-09T09:40:45;13.45;;;6.90;;
5225;SDS011;2632;51.666;7.146;2023-07-09T09:43:16;10.10;;;6.68;;
5225;SDS011;2632;51.666;7.146;2023-07-09T09:45:47;12.10;;;6.32;;
5225;SDS011;2632;51.666;7.146;2023-07-09T09:48:19;9.73;;;5.82;;
5225;SDS011;2632;51.666;7.146;2023-07-09T09:50:53;8.20;;;6.13;;
5225;SDS011;2632;51.666;7.146;2023-07-09T09:53:23;8.85;;;6.60;;
5225;SDS011;2632;51.666;7.146;2023-07-09T09:55:51;8.10;;;6.82;;
5225;SDS011;2632;51.666;7.146;2023-07-09T09:58:19;11.15;;;6.60;;
5225;SDS011;2632;51.666;7.146;2023-07-09T10:00:52;10.77;;;5.95;;
5225;SDS011;2632;51.666;7.146;2023-07-09T10:03:21;10.38;;;6.30;;
5225;SDS011;2632;51.666;7.146;2023-07-09T10:05:58;8.02;;;6.15;;
5225;SDS011;2632;51.666;7.146;2023-07-09T10:11:39;7.40;;;5.60;;
5225;SDS011;2632;51.666;7.146;2023-07-09T10:14:23;8.63;;;5.88;;
5225;SDS011;2632;51.666;7.146;2023-07-09T10:17:23;10.18;;;6.57;;
5225;SDS011;2632;51.666;7.146;2023-07-09T10:20:24;11.40;;;6.38;;
5225;SDS011;2632;51.666;7.146;2023-07-09T10:25:57;7.88;;;5.80;;
5225;SDS011;2632;51.666;7.146;2023-07-09T10:39:06;10.25;;;5.88;;
5225;SDS011;2632;51.666;7.146;2023-07-09T10:41:40;9.02;;;6.38;;
5225;SDS011;2632;51.666;7.146;2023-07-09T10:44:14;6.60;;;5.90;;
5225;SDS011;2632;51.666;7.146;2023-07-09T10:46:42;9.98;;;6.13;;
5225;SDS011;2632;51.666;7.146;2023-07-09T10:49:15;8.05;;;6.28;;
5225;SDS011;2632;51.666;7.146;2023-07-09T10:51:44;10.00;;;6.40;;
5225;SDS011;2632;51.666;7.146;2023-07-09T10:57:13;8.00;;;6.03;;
5225;SDS011;2632;51.666;7.146;2023-07-09T10:59:41;8.48;;;6.10;;
5225;SDS011;2632;51.666;7.146;2023-07-09T11:02:15;6.78;;;6.07;;
5225;SDS011;2632;51.666;7.146;2023-07-09T11:07:20;9.35;;;6.13;;
5225;SDS011;2632;51.666;7.146;2023-07-09T11:09:51;7.88;;;5.80;;
5225;SDS011;2632;51.666;7.146;2023-07-09T11:15:03;7.95;;;5.95;;
5225;SDS011;2632;51.666;7.146;2023-07-09T11:17:40;9.13;;;6.20;;
5225;SDS011;2632;51.666;7.146;2023-07-09T11:20:24;7.60;;;5.45;;
5225;SDS011;2632;51.666;7.146;2023-07-09T11:22:59;9.45;;;5.90;;
5225;SDS011;2632;51.666;7.146;2023-07-09T11:28:08;6.88;;;5.50;;
5225;SDS011;2632;51.666;7.146;2023-07-09T11:30:54;9.00;;;5.45;;
5225;SDS011;2632;51.666;7.146;2023-07-09T11:33:31;8.45;;;5.90;;
5225;SDS011;2632;51.666;7.146;2023-07-09T11:36:08;7.57;;;5.80;;
5225;SDS011;2632;51.666;7.146;2023-07-09T11:38:40;11.52;;;5.80;;
5225;SDS011;2632;51.666;7.146;2023-07-09T11:44:15;9.18;;;5.38;;
5225;SDS011;2632;51.666;7.146;2023-07-09T11:47:19;9.07;;;5.43;;
5225;SDS011;2632;51.666;7.146;2023-07-09T11:50:23;6.93;;;5.70;;
5225;SDS011;2632;51.666;7.146;2023-07-09T11:52:59;10.65;;;5.85;;
5225;SDS011;2632;51.666;7.146;2023-07-09T11:58:05;6.82;;;5.10;;
5225;SDS011;2632;51.666;7.146;2023-07-09T12:00:38;5.97;;;5.10;;
5225;SDS011;2632;51.666;7.146;2023-07-09T12:03:06;6.20;;;5.20;;
5225;SDS011;2632;51.666;7.146;2023-07-09T12:05:36;6.55;;;5.28;;
5225;SDS011;2632;51.666;7.146;2023-07-09T12:08:05;9.65;;;5.47;;
5225;SDS011;2632;51.666;7.146;2023-07-09T12:10:33;8.05;;;5.35;;
5225;SDS011;2632;51.666;7.146;2023-07-09T12:13:02;7.43;;;5.00;;
5225;SDS011;2632;51.666;7.146;2023-07-09T12:15:30;12.13;;;4.70;;
5225;SDS011;2632;51.666;7.146;2023-07-09T12:18:03;7.93;;;5.28;;
5225;SDS011;2632;51.666;7.146;2023-07-09T12:20:37;7.90;;;5.15;;
5225;SDS011;2632;51.666;7.146;2023-07-09T12:25:53;7.68;;;4.90;;
5225;SDS011;2632;51.666;7.146;2023-07-09T12:28:21;10.13;;;5.07;;
5225;SDS011;2632;51.666;7.146;2023-07-09T12:30:49;5.32;;;4.82;;
5225;SDS011;2632;51.666;7.146;2023-07-09T12:33:19;12.65;;;5.57;;
5225;SDS011;2632;51.666;7.146;2023-07-09T12:35:48;9.98;;;6.07;;
5225;SDS011;2632;51.666;7.146;2023-07-09T12:38:21;11.10;;;5.45;;
5225;SDS011;2632;51.666;7.146;2023-07-09T12:40:51;6.65;;;4.93;;
5225;SDS011;2632;51.666;7.146;2023-07-09T12:43:23;6.40;;;4.97;;
5225;SDS011;2632;51.666;7.146;2023-07-09T12:45:52;7.07;;;4.88;;
5225;SDS011;2632;51.666;7.146;2023-07-09T12:48:24;6.03;;;4.85;;
5225;SDS011;2632;51.666;7.146;2023-07-09T12:50:57;10.68;;;5.47;;
5225;SDS011;2632;51.666;7.146;2023-07-09T12:53:26;7.28;;;5.13;;
5225;SDS011;2632;51.666;7.146;2023-07-09T12:55:55;8.75;;;5.38;;
5225;SDS011;2632;51.666;7.146;2023-07-09T12:58:30;9.35;;;5.25;;
5225;SDS011;2632;51.666;7.146;2023-07-09T13:00:59;6.20;;;5.57;;
5225;SDS011;2632;51.666;7.146;2023-07-09T13:03:32;9.45;;;4.78;;
5225;SDS011;2632;51.666;7.146;2023-07-09T13:06:00;5.97;;;5.15;;
5225;SDS011;2632;51.666;7.146;2023-07-09T13:08:32;7.95;;;4.80;;
5225;SDS011;2632;51.666;7.146;2023-07-09T13:11:14;7.53;;;4.95;;
5225;SDS011;2632;51.666;7.146;2023-07-09T13:13:42;5.82;;;4.68;;
5225;SDS011;2632;51.666;7.146;2023-07-09T13:16:21;11.10;;;4.75;;
5225;SDS011;2632;51.666;7.146;2023-07-09T13:18:48;9.15;;;4.13;;
5225;SDS011;2632;51.666;7.146;2023-07-09T13:21:18;9.38;;;4.07;;
5225;SDS011;2632;51.666;7.146;2023-07-09T13:23:46;4.90;;;3.72;;
5225;SDS011;2632;51.666;7.146;2023-07-09T13:26:13;5.82;;;4.28;;
5225;SDS011;2632;51.666;7.146;2023-07-09T13:28:42;6.88;;;4.22;;
5225;SDS011;2632;51.666;7.146;2023-07-09T13:31:13;4.72;;;4.07;;
5225;SDS011;2632;51.666;7.146;2023-07-09T13:33:45;7.15;;;3.83;;
5225;SDS011;2632;51.666;7.146;2023-07-09T13:36:18;7.18;;;4.47;;
5225;SDS011;2632;51.666;7.146;2023-07-09T13:38:45;9.18;;;4.55;;
5225;SDS011;2632;51.666;7.146;2023-07-09T13:41:13;6.63;;;4.38;;
5225;SDS011;2632;51.666;7.146;2023-07-09T13:43:44;6.22;;;3.97;;
5225;SDS011;2632;51.666;7.146;2023-07-09T13:46:12;7.90;;;4.65;;
5225;SDS011;2632;51.666;7.146;2023-07-09T13:48:40;5.07;;;4.05;;
5225;SDS011;2632;51.666;7.146;2023-07-09T13:51:20;6.63;;;5.10;;
5225;SDS011;2632;51.666;7.146;2023-07-09T13:53:48;6.85;;;4.47;;
5225;SDS011;2632;51.666;7.146;2023-07-09T13:56:17;5.47;;;4.28;;
5225;SDS011;2632;51.666;7.146;2023-07-09T13:58:44;5.93;;;4.20;;
5225;SDS011;2632;51.666;7.146;2023-07-09T14:01:14;7.90;;;4.10;;
5225;SDS011;2632;51.666;7.146;2023-07-09T14:03:44;6.57;;;3.97;;
5225;SDS011;2632;51.666;7.146;2023-07-09T14:06:11;7.63;;;3.60;;
5225;SDS011;2632;51.666;7.146;2023-07-09T14:08:39;7.47;;;4.20;;
5225;SDS011;2632;51.666;7.146;2023-07-09T14:11:13;5.13;;;4.07;;
5225;SDS011;2632;51.666;7.146;2023-07-09T14:13:42;7.50;;;4.22;;
5225;SDS011;2632;51.666;7.146;2023-07-09T14:16:10;5.38;;;3.83;;
5225;SDS011;2632;51.666;7.146;2023-07-09T14:18:38;6.68;;;4.07;;
5225;SDS011;2632;51.666;7.146;2023-07-09T14:21:17;5.80;;;4.05;;
5225;SDS011;2632;51.666;7.146;2023-07-09T14:23:49;6.70;;;3.80;;
5225;SDS011;2632;51.666;7.146;2023-07-09T14:26:15;6.38;;;4.00;;
5225;SDS011;2632;51.666;7.146;2023-07-09T14:28:42;7.85;;;3.92;;
5225;SDS011;2632;51.666;7.146;2023-07-09T14:31:27;7.88;;;4.70;;
5225;SDS011;2632;51.666;7.146;2023-07-09T14:33:56;8.27;;;4.80;;
5225;SDS011;2632;51.666;7.146;2023-07-09T14:36:42;7.00;;;4.47;;
5225;SDS011;2632;51.666;7.146;2023-07-09T14:39:09;8.38;;;5.15;;
5225;SDS011;2632;51.666;7.146;2023-07-09T14:41:36;5.68;;;4.22;;
5225;SDS011;2632;51.666;7.146;2023-07-09T14:44:05;8.00;;;4.80;;
5225;SDS011;2632;51.666;7.146;2023-07-09T14:46:48;8.35;;;5.45;;
5225;SDS011;2632;51.666;7.146;2023-07-09T14:49:25;8.13;;;4.78;;
5225;SDS011;2632;51.666;7.146;2023-07-09T14:51:53;9.40;;;5.75;;
5225;SDS011;2632;51.666;7.146;2023-07-09T14:54:21;12.57;;;5.82;;
5225;SDS011;2632;51.666;7.146;2023-07-09T14:56:50;12.73;;;6.32;;
5225;SDS011;2632;51.666;7.146;2023-07-09T14:59:18;12.65;;;6.88;;
5225;SDS011;2632;51.666;7.146;2023-07-09T15:01:45;9.97;;;5.90;;
5225;SDS011;2632;51.666;7.146;2023-07-09T15:06:52;7.50;;;4.83;;
5225;SDS011;2632;51.666;7.146;2023-07-09T15:09:25;8.70;;;4.47;;
5225;SDS011;2632;51.666;7.146;2023-07-09T15:11:56;4.50;;;4.10;;
5225;SDS011;2632;51.666;7.146;2023-07-09T15:14:25;6.97;;;5.30;;
5225;SDS011;2632;51.666;7.146;2023-07-09T15:16:53;15.00;;;7.23;;
5225;SDS011;2632;51.666;7.146;2023-07-09T15:19:24;13.37;;;6.33;;
5225;SDS011;2632;51.666;7.146;2023-07-09T15:21:52;13.27;;;7.67;;
5225;SDS011;2632;51.666;7.146;2023-07-09T15:24:25;11.70;;;6.97;;
5225;SDS011;2632;51.666;7.146;2023-07-09T15:26:56;12.27;;;7.43;;
5225;SDS011;2632;51.666;7.146;2023-07-09T15:29:27;13.57;;;6.43;;
5225;SDS011;2632;51.666;7.146;2023-07-09T15:31:54;12.33;;;6.90;;
5225;SDS011;2632;51.666;7.146;2023-07-09T15:34:21;9.27;;;6.70;;
5225;SDS011;2632;51.666;7.146;2023-07-09T15:36:49;8.00;;;5.13;;
5225;SDS011;2632;51.666;7.146;2023-07-09T15:39:17;8.33;;;5.43;;
5225;SDS011;2632;51.666;7.146;2023-07-09T15:41:45;9.47;;;5.73;;
5225;SDS011;2632;51.666;7.146;2023-07-09T15:44:14;13.60;;;7.00;;
5225;SDS011;2632;51.666;7.146;2023-07-09T15:46:44;10.70;;;6.83;;
5225;SDS011;2632;51.666;7.146;2023-07-09T15:49:17;8.80;;;6.60;;
5225;SDS011;2632;51.666;7.146;2023-07-09T15:51:44;10.67;;;6.93;;
5225;SDS011;2632;51.666;7.146;2023-07-09T15:54:15;14.23;;;7.43;;
5225;SDS011;2632;51.666;7.146;2023-07-09T15:56:44;11.83;;;7.10;;
5225;SDS011;2632;51.666;7.146;2023-07-09T15:59:31;10.90;;;8.00;;
5225;SDS011;2632;51.666;7.146;2023-07-09T16:02:02;12.17;;;8.33;;
5225;SDS011;2632;51.666;7.146;2023-07-09T16:04:35;11.93;;;8.33;;
5225;SDS011;2632;51.666;7.146;2023-07-09T16:07:02;9.63;;;6.97;;
5225;SDS011;2632;51.666;7.146;2023-07-09T16:09:29;8.50;;;6.43;;
5225;SDS011;2632;51.666;7.146;2023-07-09T16:11:55;10.93;;;6.50;;
5225;SDS011;2632;51.666;7.146;2023-07-09T16:14:23;9.80;;;6.43;;
5225;SDS011;2632;51.666;7.146;2023-07-09T16:16:53;11.97;;;6.50;;
5225;SDS011;2632;51.666;7.146;2023-07-09T16:19:22;7.80;;;5.80;;